Time;durP1;ratioP1;P1;durP2;ratioP2;P2;SDS_P1;SDS_P2;PMS_P1;PMS_P2;Temp;Humidity;BMP_temperature;BMP_pressure;BME280_temperature;BME280_humidity;BME280_pressure;Samples;Min_cycle;Max_cycle;Signal;HPM_P1;HPM_P2
2022/10/17 00:13:11;;;;;;;;;;;;;;;;;;;;;
2022/10/17 00:18:28;;;;;;;19.48;15.50;;;;;;;11.35;81.03;101458.03;2994678;92;21076;-75
2022/10/17 00:29:58;;;;;;;;;;;;;;;;;;;;;
2022/10/17 01:25:29;;;;;;;15.38;13.15;;;;;;;10.86;80.99;101471.05;2599916;105;21052;-75
2022/10/17 01:31:01;;;;;;;16.23;13.65;;;;;;;10.79;81.13;101480.82;2732416;102;21748;-74
2022/10/17 01:36:04;;;;;;;17.52;14.65;;;;;;;10.77;81.31;101485.10;2773160;99;21239;-74
2022/10/17 01:41:03;;;;;;;17.60;14.53;;;;;;;10.84;81.80;101488.34;2823376;98;21163;-74
2022/10/17 01:46:02;;;;;;;20.05;15.38;;;;;;;10.96;81.88;101483.88;3002307;91;21004;-75
2022/10/17 01:51:15;;;;;;;18.00;13.68;;;;;;;11.04;81.93;101468.94;3083513;90;21066;-74
2022/10/17 01:56:06;;;;;;;15.90;14.07;;;;;;;11.13;82.08;101463.53;3255921;85;21077;-75
2022/10/17 02:01:05;;;;;;;19.82;14.07;;;;;;;11.19;82.12;101471.49;3322212;84;21940;-75
2022/10/17 02:06:01;;;;;;;18.35;14.03;;;;;;;11.19;82.06;101468.89;3310964;84;20939;-74
2022/10/17 02:11:06;;;;;;;18.00;15.80;;;;;;;11.20;82.28;101458.52;3553206;77;21021;-75
2022/10/17 02:16:32;;;;;;;16.57;14.73;;;;;;;11.20;82.21;101447.23;3514846;79;21421;-74
2022/10/17 02:21:35;;;;;;;19.10;14.98;;;;;;;11.16;81.98;101460.98;3513967;78;20943;-75
2022/10/17 02:26:32;;;;;;;19.25;15.05;;;;;;;11.05;82.02;101469.41;3545038;78;20972;-74
2022/10/17 02:31:39;;;;;;;18.85;13.70;;;;;;;10.99;82.09;101474.44;3551132;78;20928;-75
2022/10/17 02:36:40;;;;;;;18.40;15.78;;;;;;;10.95;82.28;101467.39;3551194;78;21007;-75
2022/10/17 02:41:34;;;;;;;17.73;15.60;;;;;;;10.92;82.29;101476.41;3546011;78;21438;-74
2022/10/17 02:46:28;;;;;;;23.83;15.63;;;;;;;10.82;81.89;101483.48;3531252;79;20933;-74
2022/10/17 02:51:43;;;;;;;18.77;16.00;;;;;;;10.74;82.09;101492.81;3523301;79;22107;-75
2022/10/17 02:56:47;;;;;;;14.87;13.27;;;;;;;10.71;82.20;101505.72;3536229;78;20912;-74
2022/10/17 03:01:51;;;;;;;;;;;;;;;;;;;;;
2022/10/17 03:06:36;;;;;;;23.93;16.83;;;;;;;10.62;82.26;101520.23;3526716;79;21492;-74
2022/10/17 03:11:34;;;;;;;18.87;15.65;;;;;;;10.61;82.43;101520.19;3492747;78;20920;-75
2022/10/17 03:16:25;;;;;;;18.17;15.60;;;;;;;10.60;82.42;101523.61;3504592;79;21041;-74
2022/10/17 03:21:27;;;;;;;19.57;16.73;;;;;;;10.55;82.18;101529.09;3562399;79;20908;-75
2022/10/17 03:26:13;;;;;;;19.02;16.45;;;;;;;10.49;82.05;101546.69;3543857;78;21022;-75
2022/10/17 03:31:13;;;;;;;17.85;15.95;;;;;;;10.44;82.32;101549.56;3544541;79;21011;-74
2022/10/17 03:36:22;;;;;;;19.12;16.27;;;;;;;10.49;82.89;101541.48;3454736;79;20980;-74
2022/10/17 03:41:20;;;;;;;19.52;16.50;;;;;;;10.57;82.98;101532.22;3515311;79;21571;-75
2022/10/17 03:46:14;;;;;;;19.87;17.73;;;;;;;10.59;82.91;101546.14;3495180;79;20923;-75
2022/10/17 03:51:20;;;;;;;;;;;;;;;;;;;;;
2022/10/17 03:56:18;;;;;;;22.93;18.05;;;;;;;10.54;82.83;101550.31;3494654;79;20994;-75
2022/10/17 04:01:14;;;;;;;22.45;17.05;;;;;;;10.53;83.01;101544.64;3486221;79;21559;-75
2022/10/17 04:06:13;;;;;;;28.20;19.42;;;;;;;10.51;83.06;101545.02;3497670;78;21985;-74
2022/10/17 04:11:14;;;;;;;19.42;17.42;;;;;;;10.50;83.05;101560.17;3492525;78;21462;-74
2022/10/17 04:16:14;;;;;;;22.20;19.07;;;;;;;10.47;83.04;101557.03;3567634;78;20954;-74
2022/10/17 04:21:17;;;;;;;21.20;17.85;;;;;;;10.49;83.26;101554.48;3521393;79;20960;-75
2022/10/17 04:26:09;;;;;;;24.07;20.15;;;;;;;10.47;83.35;101561.36;3534373;78;20888;-75
2022/10/17 04:31:03;;;;;;;24.80;19.30;;;;;;;10.45;83.25;101560.44;3536793;79;21312;-74
2022/10/17 04:36:15;;;;;;;;;;;;;;;;;;;;;
2022/10/17 04:41:05;;;;;;;26.62;21.55;;;;;;;10.38;83.31;101579.28;3524006;79;21741;-74
2022/10/17 04:46:37;;;;;;;;;;;;;;;;;;;;;
2022/10/17 04:57:19;;;;;;;26.85;20.35;;;;;;;10.52;83.65;101575.39;3303559;83;21046;-76
2022/10/17 05:02:20;;;;;;;;;;;;;;;;;;;;;
2022/10/17 05:07:18;;;;;;;26.33;20.70;;;;;;;10.48;83.44;101581.31;3404233;79;21006;-76
2022/10/17 05:12:52;;;;;;;;;;;;;;;;;;;;;
2022/10/17 05:18:03;;;;;;;24.10;19.40;;;;;;;10.40;83.78;101588.88;3496186;78;21473;-75
2022/10/17 05:28:23;;;;;;;23.70;18.65;;;;;;;10.42;83.79;101605.83;3564921;78;20941;-74
2022/10/17 05:33:19;;;;;;;29.30;22.80;;;;;;;10.44;83.68;101618.45;3541062;79;20949;-74
2022/10/17 05:38:13;;;;;;;26.35;22.98;;;;;;;10.51;83.78;101623.44;3493049;78;21979;-74
2022/10/17 05:43:07;;;;;;;27.70;23.80;;;;;;;10.60;83.97;101633.70;3498284;79;20956;-74
2022/10/17 05:48:00;;;;;;;27.00;20.72;;;;;;;10.71;84.06;101635.34;3508145;78;21458;-74
2022/10/17 05:58:43;;;;;;;;;;;;;;;10.87;83.91;101645.80;3563162;78;21007;-74
2022/10/17 06:04:04;;;;;;;33.58;22.82;;;;;;;10.95;84.06;101653.86;3393660;80;20182;-74
2022/10/17 06:20:01;;;;;;;29.92;24.45;;;;;;;11.59;84.31;101676.56;3303777;84;21528;-74
2022/10/17 06:24:51;;;;;;;24.55;20.57;;;;;;;11.73;84.14;101673.05;3287612;84;21160;-74
2022/10/17 06:29:49;;;;;;;25.57;22.67;;;;;;;11.81;83.91;101678.03;3317669;84;21031;-74
2022/10/17 06:34:46;;;;;;;27.90;23.57;;;;;;;11.85;83.92;101684.64;3314061;84;21587;-74
2022/10/17 06:39:37;;;;;;;29.32;26.10;;;;;;;11.90;83.86;101691.77;3279537;84;22082;-74
2022/10/17 06:44:31;;;;;;;35.90;25.27;;;;;;;12.04;84.02;101690.84;3368142;81;21020;-74
2022/10/17 06:49:26;;;;;;;31.27;26.30;;;;;;;12.12;84.01;101688.00;3470867;80;21031;-74
2022/10/17 06:54:27;;;;;;;29.57;25.77;;;;;;;12.24;84.06;101710.03;3403216;80;21095;-74
2022/10/17 06:59:34;;;;;;;35.08;28.10;;;;;;;12.38;84.31;101708.23;3501020;78;20995;-74
2022/10/17 07:04:29;;;;;;;28.50;22.85;;;;;;;12.52;84.27;101705.98;3519189;78;20979;-74
2022/10/17 07:09:21;;;;;;;32.30;25.27;;;;;;;12.66;84.07;101702.81;3482971;79;21036;-74
2022/10/17 07:14:18;;;;;;;32.75;28.73;;;;;;;12.77;84.37;101698.32;3489643;79;20992;-74
2022/10/17 07:19:15;;;;;;;32.60;27.02;;;;;;;12.96;84.42;101703.95;3481346;79;21221;-74
2022/10/17 07:24:11;;;;;;;42.10;28.92;;;;;;;13.15;84.37;101700.05;3531906;78;21418;-74
2022/10/17 07:29:10;;;;;;;32.55;28.38;;;;;;;13.37;84.19;101707.06;3541049;78;21820;-76
2022/10/17 07:34:09;;;;;;;32.50;26.77;;;;;;;13.68;83.92;101709.47;3523088;78;20920;-75
2022/10/17 07:39:10;;;;;;;;;;;;;;;;;;;;;
2022/10/17 07:44:06;;;;;;;;;;;;;;;;;;;;;
2022/10/17 07:48:56;;;;;;;31.70;25.70;;;;;;;14.58;82.16;101718.97;3528215;79;20987;-75
2022/10/17 07:53:52;;;;;;;;;;;;;;;14.90;81.94;101706.79;3529121;78;21453;-76
2022/10/17 07:58:47;;;;;;;27.42;22.00;;;;;;;15.53;80.79;101715.09;3561444;78;20095;-75
2022/10/17 08:03:44;;;;;;;23.18;20.75;;;;;;;15.69;80.28;101725.78;3557859;79;21645;-76
2022/10/17 08:08:45;;;;;;;;;;;;;;;;;;;;;
2022/10/17 08:13:45;;;;;;;;;;;;;;;;;;;;;
2022/10/17 08:18:39;;;;;;;24.40;20.52;;;;;;;16.24;78.97;101742.15;3544805;78;21007;-75
2022/10/17 08:23:31;;;;;;;23.20;20.82;;;;;;;16.36;78.30;101748.84;3556293;78;21059;-76
2022/10/17 08:28:40;;;;;;;22.73;20.35;;;;;;;16.53;78.49;101746.34;3524353;78;21026;-76
2022/10/17 08:33:49;;;;;;;21.50;19.15;;;;;;;16.77;78.08;101740.41;3554741;78;21022;-75
2022/10/17 08:38:52;;;;;;;19.40;17.50;;;;;;;17.12;77.76;101734.56;3499515;78;20971;-74
2022/10/17 08:49:31;;;;;;;20.52;18.37;;;;;;;17.53;76.55;101735.66;3519788;79;21014;-76
2022/10/17 08:55:05;;;;;;;;;;;;;;;;;;;;;
2022/10/17 08:59:58;;;;;;;21.95;17.73;;;;;;;17.74;75.68;101725.63;3478800;79;20915;-75
2022/10/17 09:05:29;;;;;;;19.80;17.67;;;;;;;17.84;75.21;101715.59;3521370;78;21656;-75
2022/10/17 09:10:35;;;;;;;18.32;15.90;;;;;;;17.99;75.48;101723.11;3560038;79;22190;-75
2022/10/17 09:15:46;;;;;;;18.65;16.15;;;;;;;19.54;72.04;101715.53;3358867;83;21566;-74
2022/10/17 09:20:51;;;;;;;20.05;16.37;;;;;;;20.19;70.74;101726.20;3375064;83;21068;-76
2022/10/17 09:26:00;;;;;;;17.27;15.73;;;;;;;19.68;71.25;101720.30;3381768;83;21783;-76
2022/10/17 09:31:42;;;;;;;16.80;14.20;;;;;;;19.99;70.50;101713.56;3339252;83;21003;-77
2022/10/17 09:36:47;;;;;;;17.30;15.28;;;;;;;20.06;70.12;101708.67;3389163;83;21119;-75
2022/10/17 09:41:55;;;;;;;25.15;16.67;;;;;;;20.57;68.54;101714.91;3255035;83;20996;-76
2022/10/17 09:47:07;;;;;;;17.62;14.58;;;;;;;20.42;68.96;101710.61;3357452;83;22695;-75
2022/10/17 09:52:02;;;;;;;15.65;13.80;;;;;;;20.87;67.59;101711.14;3461488;79;21513;-75
2022/10/17 09:57:07;;;;;;;16.10;14.30;;;;;;;20.88;67.19;101708.91;3523927;78;21246;-75
2022/10/17 10:02:16;;;;;;;15.63;14.03;;;;;;;20.93;67.36;101711.06;3463762;78;21029;-76
2022/10/17 10:07:18;;;;;;;15.45;13.15;;;;;;;21.04;66.72;101697.73;3521656;78;20952;-77
2022/10/17 10:12:19;;;;;;;16.25;14.55;;;;;;;21.92;64.74;101693.98;3538053;78;20963;-75
2022/10/17 10:17:37;;;;;;;15.53;14.00;;;;;;;21.65;65.42;101692.16;3534321;78;21461;-76
2022/10/17 10:22:28;;;;;;;16.32;14.73;;;;;;;21.39;65.69;101688.94;3501919;78;21417;-77
2022/10/17 10:27:22;;;;;;;19.82;13.98;;;;;;;21.17;64.62;101681.73;3545532;78;21591;-76
2022/10/17 10:32:30;;;;;;;14.63;13.22;;;;;;;21.13;65.59;101674.28;3539554;78;20976;-76
2022/10/17 10:37:44;;;;;;;15.90;13.65;;;;;;;21.44;64.42;101675.22;3546148;78;21055;-76
2022/10/17 10:42:38;;;;;;;15.15;13.60;;;;;;;21.90;63.52;101679.45;3486253;80;21337;-76
2022/10/17 10:47:32;;;;;;;13.88;12.55;;;;;;;21.89;62.75;101680.36;3527652;78;21405;-76
2022/10/17 10:52:35;;;;;;;15.85;14.25;;;;;;;21.65;63.65;101683.36;3492855;78;21088;-76
2022/10/17 10:57:32;;;;;;;15.03;13.28;;;;;;;21.52;63.40;101672.06;3578192;79;21011;-76
2022/10/17 11:02:46;;;;;;;14.87;13.48;;;;;;;21.30;63.22;101669.67;3529963;79;21473;-76
2022/10/17 11:07:59;;;;;;;14.35;12.95;;;;;;;21.37;62.72;101666.48;3562248;78;21389;-77
2022/10/17 11:13:27;;;;;;;15.85;14.13;;;;;;;21.44;63.03;101670.79;3576188;79;21438;-77
2022/10/17 11:18:39;;;;;;;16.15;14.58;;;;;;;21.74;62.22;101670.45;3544378;79;22053;-77
2022/10/17 11:29:17;;;;;;;13.03;11.83;;;;;;;22.56;61.48;101660.77;3267684;85;22466;-76
2022/10/17 11:34:19;;;;;;;15.25;13.65;;;;;;;23.76;57.92;101671.62;3241289;85;20992;-78
2022/10/17 11:45:03;;;;;;;15.28;13.35;;;;;;;24.66;57.14;101667.68;3082712;91;21516;-77
2022/10/17 11:51:02;;;;;;;15.28;13.60;;;;;;;24.61;57.65;101659.84;3044404;91;21579;-77
2022/10/17 11:55:52;;;;;;;13.98;12.58;;;;;;;24.39;57.74;101662.14;2964617;94;21099;-77
2022/10/17 12:00:51;;;;;;;13.45;11.97;;;;;;;23.87;58.18;101666.95;2977497;94;21128;-76
2022/10/17 12:05:51;;;;;;;13.88;12.40;;;;;;;23.45;58.29;101670.98;3087463;90;21581;-76
2022/10/17 12:11:21;;;;;;;14.80;13.25;;;;;;;23.20;58.31;101674.14;3134510;89;21544;-75
2022/10/17 12:16:23;;;;;;;14.53;12.95;;;;;;;22.99;58.52;101663.94;3133249;89;20968;-75
2022/10/17 12:21:39;;;;;;;;;;;;;;;;;;;;;
2022/10/17 12:27:07;;;;;;;14.53;12.65;;;;;;;22.87;59.23;101661.52;3152623;85;20944;-75
2022/10/17 12:38:04;;;;;;;14.35;11.40;;;;;;;22.72;58.06;101664.88;3360222;83;21034;-76
2022/10/17 12:42:57;;;;;;;12.07;10.88;;;;;;;22.67;58.39;101650.84;3390021;83;20987;-75
2022/10/17 12:47:48;;;;;;;12.55;11.35;;;;;;;22.95;58.34;101649.00;3298508;83;21011;-75
2022/10/17 12:52:45;;;;;;;13.50;11.53;;;;;;;23.11;57.66;101646.91;3336984;83;20991;-74
2022/10/17 12:58:00;;;;;;;13.88;11.68;;;;;;;23.13;57.66;101644.67;3363862;82;20940;-75
2022/10/17 13:03:35;;;;;;;12.98;11.78;;;;;;;23.16;57.47;101641.97;3353606;82;21774;-78
2022/10/17 13:08:25;;;;;;;12.05;10.88;;;;;;;23.08;57.92;101640.37;3520098;78;20935;-77
2022/10/17 13:13:20;;;;;;;12.53;11.22;;;;;;;23.07;57.26;101634.17;3583271;78;21021;-76
2022/10/17 13:18:26;;;;;;;12.53;11.33;;;;;;;22.90;57.00;101628.33;3538342;77;20971;-76
2022/10/17 13:23:27;;;;;;;16.02;13.43;;;;;;;22.82;57.21;101629.78;3525310;78;21547;-76
2022/10/17 13:28:18;;;;;;;13.13;11.73;;;;;;;22.53;56.45;101631.67;3557497;78;21368;-76
2022/10/17 13:33:34;;;;;;;13.25;11.88;;;;;;;22.31;57.38;101630.73;3495596;77;21022;-76
2022/10/17 13:38:31;;;;;;;12.82;11.63;;;;;;;22.13;57.54;101623.08;3575297;78;21365;-75
2022/10/17 13:43:26;;;;;;;14.03;12.43;;;;;;;21.91;57.75;101628.72;3539291;78;21018;-75
2022/10/17 13:48:30;;;;;;;14.03;12.78;;;;;;;21.72;58.09;101623.28;3537734;78;20988;-76
2022/10/17 13:53:33;;;;;;;13.35;12.03;;;;;;;21.57;58.70;101618.64;3540739;77;21018;-75
2022/10/17 13:58:47;;;;;;;15.63;13.68;;;;;;;21.35;58.67;101619.79;3502028;77;20974;-75
2022/10/17 14:03:50;;;;;;;20.40;14.93;;;;;;;21.10;59.64;101615.72;3566252;77;21473;-75
2022/10/17 14:09:05;;;;;;;17.98;13.58;;;;;;;20.84;60.19;101610.73;3557394;78;20948;-75
2022/10/17 14:14:04;;;;;;;14.90;12.43;;;;;;;20.63;61.27;101610.97;3553961;78;20952;-76
2022/10/17 14:18:55;;;;;;;15.70;13.48;;;;;;;20.38;61.96;101613.36;3538003;78;21865;-76
2022/10/17 14:23:46;;;;;;;20.65;13.88;;;;;;;20.11;62.49;101606.56;3567562;78;20978;-75
2022/10/17 14:28:38;;;;;;;15.18;13.65;;;;;;;19.87;63.05;101606.76;3539953;77;20955;-75
2022/10/17 14:33:31;;;;;;;21.62;14.47;;;;;;;19.66;63.69;101599.86;3559518;78;20947;-75
2022/10/17 14:38:23;;;;;;;16.90;15.15;;;;;;;19.43;64.30;101607.01;3521698;78;20979;-76
2022/10/17 14:48:31;;;;;;;18.07;14.25;;;;;;;19.01;65.23;101591.84;3364599;82;21503;-74
2022/10/17 14:53:23;;;;;;;72.03;38.35;;;;;;;18.83;65.86;101597.16;3262084;84;21004;-75
2022/10/17 14:58:32;;;;;;;21.50;16.12;;;;;;;18.67;66.48;101591.03;3339465;83;21049;-74
2022/10/17 15:03:24;;;;;;;18.00;15.18;;;;;;;18.50;67.03;101584.50;3299474;81;20964;-74
2022/10/17 15:08:18;;;;;;;17.57;14.07;;;;;;;18.33;67.53;101588.91;3215249;83;22492;-75
2022/10/17 15:13:29;;;;;;;19.10;14.75;;;;;;;18.14;68.04;101582.36;3249226;85;21150;-76
2022/10/17 15:18:22;;;;;;;17.20;15.35;;;;;;;17.99;68.51;101588.92;3271934;85;21501;-76
2022/10/17 15:28:38;;;;;;;25.68;16.97;;;;;;;17.64;69.27;101597.64;3271830;84;20999;-76
2022/10/17 15:33:45;;;;;;;24.23;16.40;;;;;;;17.45;69.88;101596.27;3192014;86;21035;-76
2022/10/17 15:38:42;;;;;;;19.32;17.15;;;;;;;17.27;70.34;101593.59;3176560;88;21062;-74
2022/10/17 15:43:42;;;;;;;18.98;16.90;;;;;;;17.09;70.67;101596.59;3260774;84;21086;-75
2022/10/17 15:54:16;;;;;;;22.17;16.70;;;;;;;16.76;71.57;101592.91;3121512;90;21684;-75
2022/10/17 15:59:21;;;;;;;22.82;17.50;;;;;;;16.62;72.09;101591.95;3079179;90;21155;-76
2022/10/17 16:09:52;;;;;;;29.42;17.45;;;;;;;16.32;72.81;101598.75;3006863;92;21059;-76
2022/10/17 16:14:44;;;;;;;;;;;;;;;16.17;73.12;101595.59;3046814;92;21104;-75
2022/10/17 16:19:42;;;;;;;21.75;16.95;;;;;;;16.07;73.49;101599.44;3011701;92;20134;-76
2022/10/17 16:25:22;;;;;;;;;;;;;;;;;;;;;
2022/10/17 16:30:41;;;;;;;20.72;17.07;;;;;;;15.83;73.80;101602.30;3049529;90;21522;-74
2022/10/17 16:35:41;;;;;;;22.45;17.50;;;;;;;15.69;74.11;101597.32;3159927;87;21588;-77
2022/10/17 16:46:28;;;;;;;31.73;18.48;;;;;;;15.45;74.68;101585.69;3182450;87;21005;-75
2022/10/17 16:52:11;;;;;;;;;;;;;;;;;;;;;
2022/10/17 16:56:56;;;;;;;22.98;19.48;;;;;;;15.22;74.98;101591.58;3058828;90;20990;-74
2022/10/17 17:02:13;;;;;;;24.85;19.62;;;;;;;15.12;75.44;101585.77;3066994;90;21055;-76
2022/10/17 17:22:50;;;;;;;19.87;17.77;;;;;;;14.71;76.00;101585.23;3022857;92;21097;-74
2022/10/17 17:28:10;;;;;;;19.57;17.45;;;;;;;14.63;76.25;101581.19;2911153;96;21156;-74
2022/10/17 17:33:15;;;;;;;23.00;18.40;;;;;;;14.56;76.22;101584.54;2930779;95;21100;-74
2022/10/17 17:38:43;;;;;;;;;;;;;;;;;;;;;
2022/10/17 17:43:47;;;;;;;26.15;18.75;;;;;;;14.38;76.60;101593.90;2936879;95;21652;-78
2022/10/17 17:54:36;;;;;;;;;;;;;;;;;;;;;
2022/10/17 17:59:44;;;;;;;27.40;19.90;;;;;;;14.17;77.14;101582.67;2818673;98;21722;-75
2022/10/17 18:04:56;;;;;;;;;;;;;;;;;;;;;
2022/10/17 18:10:03;;;;;;;23.22;17.92;;;;;;;14.04;77.31;101576.37;3035649;90;21100;-76
2022/10/17 18:15:47;;;;;;;23.50;19.05;;;;;;;13.98;77.39;101584.09;3049040;90;21167;-76
2022/10/17 18:20:27;;;;;;;28.60;20.08;;;;;;;13.88;77.56;101570.44;3106398;87;20981;-76
2022/10/17 18:25:42;;;;;;;23.05;17.98;;;;;;;13.82;77.71;101578.16;3262184;78;20980;-76
2022/10/17 18:30:59;;;;;;;;;;;;;;;;;;;;;
2022/10/17 18:36:11;;;;;;;22.65;18.32;;;;;;;13.73;78.01;101577.56;3573898;77;21347;-76
2022/10/17 18:41:21;;;;;;;;;;;;;;;13.66;78.09;101579.17;3547659;78;22419;-76
2022/10/17 18:46:43;;;;;;;23.62;17.27;;;;;;;13.63;78.48;101573.91;3529663;77;20178;-75
2022/10/17 18:52:02;;;;;;;27.00;19.65;;;;;;;13.56;78.24;101564.20;3379878;81;22036;-75
2022/10/17 19:02:38;;;;;;;25.60;19.55;;;;;;;13.52;78.68;101571.52;3364759;82;21630;-75
2022/10/17 19:07:52;;;;;;;28.27;18.73;;;;;;;13.49;78.83;101572.34;3389792;82;21680;-74
2022/10/17 19:12:53;;;;;;;35.58;19.65;;;;;;;13.51;79.15;101569.77;3243804;85;21440;-75
2022/10/17 19:17:59;;;;;;;26.68;20.60;;;;;;;13.53;79.28;101571.98;3168056;87;21091;-76
2022/10/17 19:23:05;;;;;;;24.07;19.15;;;;;;;13.53;79.26;101568.06;2917454;95;21568;-74
2022/10/17 19:44:03;;;;;;;24.95;18.80;;;;;;;13.48;79.62;101567.96;2735749;102;21169;-76
2022/10/17 19:49:24;;;;;;;24.20;18.30;;;;;;;13.45;79.96;101560.09;2777676;98;21053;-75
2022/10/17 19:54:28;;;;;;;31.23;19.20;;;;;;;13.43;79.66;101559.59;2814667;98;22621;-75
2022/10/17 19:59:47;;;;;;;20.68;17.85;;;;;;;13.42;80.04;101561.77;2816889;98;21417;-74
2022/10/17 20:05:03;;;;;;;27.35;19.90;;;;;;;13.35;80.00;101561.63;2808556;99;21194;-75
2022/10/17 20:10:13;;;;;;;26.30;19.12;;;;;;;13.35;80.23;101562.94;2866762;96;21122;-76
2022/10/17 20:15:15;;;;;;;27.85;19.42;;;;;;;13.30;80.22;101561.94;3018947;92;20995;-74
2022/10/17 20:20:25;;;;;;;23.07;17.82;;;;;;;13.24;80.18;101555.30;3135780;89;21022;-76
2022/10/17 20:25:38;;;;;;;24.43;18.98;;;;;;;13.19;80.25;101551.72;3229311;84;21091;-75
2022/10/17 20:30:52;;;;;;;25.25;17.20;;;;;;;13.13;80.42;101539.42;3303140;83;21309;-75
2022/10/17 20:36:18;;;;;;;19.73;16.75;;;;;;;13.06;80.20;101536.67;3332024;83;21267;-76
2022/10/17 20:41:49;;;;;;;;;;;;;;;;;;;;;
2022/10/17 20:46:58;;;;;;;25.17;18.50;;;;;;;12.99;80.43;101534.79;3449876;80;21026;-75
2022/10/17 20:52:13;;;;;;;;;;;;;;;;;;;;;
2022/10/17 20:57:03;;;;;;;23.15;18.42;;;;;;;12.88;80.68;101521.53;3322146;84;21029;-74
2022/10/17 21:02:26;;;;;;;21.33;17.45;;;;;;;12.84;80.73;101516.67;3298434;84;21127;-75
2022/10/17 21:07:32;;;;;;;;;;;;;;;;;;;;;
2022/10/17 21:12:38;;;;;;;25.25;17.50;;;;;;;12.88;81.43;101497.60;3328832;84;21061;-75
2022/10/17 21:23:03;;;;;;;25.50;18.23;;;;;;;12.86;81.39;101494.09;3397271;82;21653;-75
2022/10/17 21:39:27;;;;;;;22.02;17.50;;;;;;;12.79;81.60;101488.29;3120143;89;21072;-74
2022/10/17 21:45:08;;;;;;;23.35;17.25;;;;;;;12.74;81.57;101495.14;3139159;89;21048;-74
2022/10/17 21:50:44;;;;;;;21.60;17.70;;;;;;;12.73;81.70;101495.97;3029763;92;21023;-74
2022/10/17 21:56:17;;;;;;;;;;;;;;;;;;;;;
2022/10/17 22:07:18;;;;;;;26.30;16.90;;;;;;;12.59;81.98;101480.93;3019336;92;21026;-76
2022/10/17 22:12:17;;;;;;;22.10;16.80;;;;;;;12.51;81.89;101477.27;2984299;93;28974;-77
2022/10/17 22:22:38;;;;;;;;;;;;;;;;;;;;;
2022/10/17 22:27:36;;;;;;;18.45;16.15;;;;;;;12.36;82.00;101482.17;2988211;89;20982;-75
2022/10/17 22:32:48;;;;;;;21.82;17.15;;;;;;;12.30;81.97;101479.41;3132722;89;21502;-76
2022/10/17 22:38:09;;;;;;;21.57;16.95;;;;;;;12.25;82.23;101475.42;3117925;88;21130;-76
2022/10/17 22:43:28;;;;;;;19.05;15.93;;;;;;;12.22;82.34;101462.31;3042457;91;21144;-75
2022/10/17 22:48:29;;;;;;;20.05;16.30;;;;;;;12.25;83.00;101452.36;3120587;86;20912;-75
2022/10/17 22:53:57;;;;;;;;;;;;;;;;;;;;;
2022/10/17 22:59:01;;;;;;;22.22;17.30;;;;;;;12.23;82.71;101467.96;3223909;86;21033;-76
2022/10/17 23:09:32;;;;;;;19.42;16.23;;;;;;;12.19;82.72;101469.62;3251314;86;21002;-76
2022/10/17 23:14:58;;;;;;;20.65;15.35;;;;;;;12.12;82.65;101462.94;3236720;86;21101;-76
2022/10/17 23:25:41;;;;;;;24.72;17.30;;;;;;;12.04;82.90;101460.56;3254722;86;21594;-75
2022/10/17 23:30:45;;;;;;;21.90;16.85;;;;;;;11.98;82.97;101457.41;3281115;85;21069;-75
2022/10/17 23:35:40;;;;;;;19.27;16.73;;;;;;;11.91;82.66;101456.80;3262295;85;21190;-75
2022/10/17 23:40:33;;;;;;;21.97;18.52;;;;;;;11.88;82.87;101449.78;3307605;84;21025;-76
2022/10/17 23:45:25;;;;;;;25.00;17.95;;;;;;;11.91;83.58;101454.20;3288373;84;21482;-76
2022/10/17 23:50:16;;;;;;;19.35;17.30;;;;;;;11.91;83.10;101447.28;3313020;84;21984;-76
2022/10/17 23:55:11;;;;;;;22.17;18.50;;;;;;;11.88;82.98;101450.20;3296646;84;20998;-75
